createdAt,value
2023-05-22T00:02:23.053Z,19.50
2023-05-22T00:04:51.766Z,19.40
2023-05-22T00:07:19.599Z,19.40
2023-05-22T00:09:48.693Z,19.30
2023-05-22T00:12:16.514Z,19.30
2023-05-22T00:14:44.350Z,19.30
2023-05-22T00:17:14.886Z,19.20
2023-05-22T00:19:43.097Z,19.20
2023-05-22T00:22:11.306Z,19.20
2023-05-22T00:24:39.093Z,19.20
2023-05-22T00:27:08.424Z,19.20
2023-05-22T00:29:36.373Z,19.10
2023-05-22T00:32:04.447Z,19.10
2023-05-22T00:34:32.406Z,19.10
2023-05-22T00:37:00.179Z,19.10
2023-05-22T00:39:27.924Z,19.00
2023-05-22T00:41:55.774Z,19.00
2023-05-22T00:44:24.879Z,19.00
2023-05-22T00:46:52.825Z,19.00
2023-05-22T00:49:21.214Z,19.00
2023-05-22T00:51:50.086Z,18.90
2023-05-22T00:54:18.217Z,18.90
2023-05-22T00:56:46.429Z,18.90
2023-05-22T00:59:14.426Z,18.90
2023-05-22T01:01:45.322Z,18.80
2023-05-22T01:04:15.558Z,18.80
2023-05-22T01:06:47.568Z,18.70
2023-05-22T01:09:15.902Z,18.70
2023-05-22T01:11:52.397Z,18.60
2023-05-22T01:14:28.866Z,18.60
2023-05-22T01:17:08.917Z,18.60
2023-05-22T01:20:01.617Z,18.60
2023-05-22T01:22:46.218Z,18.50
2023-05-22T01:25:30.453Z,18.50
2023-05-22T01:28:18.512Z,18.50
2023-05-22T01:30:57.844Z,18.40
2023-05-22T01:33:26.555Z,18.40
2023-05-22T01:35:58.214Z,18.40
2023-05-22T01:38:26.491Z,18.30
2023-05-22T01:40:55.744Z,18.30
2023-05-22T01:43:23.904Z,18.30
2023-05-22T01:45:53.045Z,18.30
2023-05-22T01:48:21.146Z,18.20
2023-05-22T01:50:54.900Z,18.20
2023-05-22T01:53:31.459Z,18.20
2023-05-22T01:56:05.254Z,18.10
2023-05-22T01:58:38.565Z,18.10
2023-05-22T02:01:09.910Z,18.10
2023-05-22T02:03:40.547Z,18.00
2023-05-22T02:06:11.684Z,18.00
2023-05-22T02:08:42.408Z,18.00
2023-05-22T02:11:12.283Z,18.00
2023-05-22T02:13:40.693Z,18.00
2023-05-22T02:16:12.202Z,18.00
2023-05-22T02:18:42.102Z,18.00
2023-05-22T02:21:09.930Z,18.00
2023-05-22T02:23:37.951Z,18.00
2023-05-22T02:26:06.390Z,18.00
2023-05-22T02:28:34.467Z,17.90
2023-05-22T02:31:03.420Z,18.00
2023-05-22T02:33:32.592Z,18.00
2023-05-22T02:36:00.338Z,17.90
2023-05-22T02:38:28.107Z,17.90
2023-05-22T02:40:55.882Z,17.90
2023-05-22T02:43:23.606Z,17.90
2023-05-22T02:45:51.481Z,17.90
2023-05-22T02:48:19.185Z,17.90
2023-05-22T02:50:48.813Z,17.90
2023-05-22T02:53:17.131Z,17.90
2023-05-22T02:55:45.966Z,17.90
2023-05-22T02:58:14.499Z,17.90
2023-05-22T03:00:43.287Z,18.00
2023-05-22T03:03:11.810Z,17.90
2023-05-22T03:05:40.146Z,17.90
2023-05-22T03:08:09.274Z,18.00
2023-05-22T03:10:37.270Z,18.00
2023-05-22T03:13:05.431Z,18.00
2023-05-22T03:15:33.223Z,17.90
2023-05-22T03:18:01.117Z,18.00
2023-05-22T03:20:28.956Z,18.00
2023-05-22T03:22:56.788Z,17.90
2023-05-22T03:25:26.021Z,18.00
2023-05-22T03:27:53.786Z,18.00
2023-05-22T03:30:21.812Z,18.00
2023-05-22T03:32:49.635Z,18.00
2023-05-22T03:35:19.895Z,18.00
2023-05-22T03:37:48.245Z,18.00
2023-05-22T03:40:16.525Z,18.00
2023-05-22T03:42:45.641Z,18.00
2023-05-22T03:45:13.504Z,18.00
2023-05-22T03:47:41.410Z,18.00
2023-05-22T03:50:10.204Z,18.00
2023-05-22T03:52:38.154Z,18.00
2023-05-22T03:55:07.084Z,18.00
2023-05-22T03:57:34.927Z,18.10
2023-05-22T04:00:06.781Z,18.10
2023-05-22T04:02:34.590Z,18.10
2023-05-22T04:05:02.425Z,18.20
2023-05-22T04:07:30.305Z,18.20
2023-05-22T04:09:58.085Z,18.30
2023-05-22T04:12:25.855Z,18.30
2023-05-22T04:14:53.870Z,18.30
2023-05-22T04:17:23.086Z,18.40
2023-05-22T04:19:51.223Z,18.50
2023-05-22T04:22:19.141Z,18.50
2023-05-22T04:24:49.387Z,18.60
2023-05-22T04:27:17.197Z,18.70
2023-05-22T04:29:46.794Z,18.70
2023-05-22T04:32:18.350Z,18.80
2023-05-22T04:34:49.269Z,18.80
2023-05-22T04:37:18.372Z,18.90
2023-05-22T04:39:46.444Z,18.90
2023-05-22T04:42:14.442Z,18.90
2023-05-22T04:44:43.806Z,19.00
2023-05-22T04:47:14.468Z,19.00
2023-05-22T04:49:43.552Z,19.00
2023-05-22T04:52:12.693Z,19.10
2023-05-22T04:54:41.411Z,19.10
2023-05-22T04:57:09.211Z,19.10
2023-05-22T04:59:39.120Z,19.20
2023-05-22T05:02:07.077Z,19.20
2023-05-22T05:04:35.078Z,19.30
2023-05-22T05:07:03.552Z,19.30
2023-05-22T05:09:32.902Z,19.30
2023-05-22T05:12:01.033Z,19.30
2023-05-22T05:14:28.831Z,19.40
2023-05-22T05:16:57.010Z,19.50
2023-05-22T05:19:25.201Z,19.50
2023-05-22T05:21:53.034Z,19.60
2023-05-22T05:24:20.871Z,19.60
2023-05-22T05:26:51.404Z,19.60
2023-05-22T05:29:19.198Z,19.70
2023-05-22T05:31:47.234Z,19.70
2023-05-22T05:34:15.352Z,19.70
2023-05-22T05:36:43.113Z,19.80
2023-05-22T05:39:10.976Z,19.80
2023-05-22T05:41:38.744Z,19.80
2023-05-22T05:44:07.846Z,19.80
2023-05-22T05:46:36.199Z,19.90
2023-05-22T05:49:10.113Z,19.90
2023-05-22T05:51:38.335Z,19.90
2023-05-22T05:54:06.402Z,19.90
2023-05-22T05:56:34.233Z,19.90
2023-05-22T05:59:02.264Z,19.90
2023-05-22T06:01:32.875Z,19.90
2023-05-22T06:04:03.153Z,20.00
2023-05-22T06:06:36.213Z,19.90
2023-05-22T06:09:05.498Z,20.00
2023-05-22T06:11:33.595Z,20.00
2023-05-22T06:14:03.131Z,20.00
2023-05-22T06:16:32.336Z,20.00
2023-05-22T06:19:01.090Z,20.00
2023-05-22T06:21:29.213Z,20.10
2023-05-22T06:23:57.390Z,20.10
2023-05-22T06:26:28.293Z,20.30
2023-05-22T06:28:56.352Z,20.40
2023-05-22T06:31:25.891Z,20.40
2023-05-22T06:33:55.369Z,20.50
2023-05-22T06:36:23.411Z,20.60
2023-05-22T06:38:51.946Z,20.70
2023-05-22T06:41:19.893Z,20.90
2023-05-22T06:43:47.635Z,21.00
2023-05-22T06:46:15.423Z,21.00
2023-05-22T06:48:43.536Z,21.10
2023-05-22T06:51:14.970Z,21.20
2023-05-22T06:53:43.048Z,21.30
2023-05-22T06:56:10.914Z,21.40
2023-05-22T06:58:39.989Z,21.40
2023-05-22T07:01:07.945Z,21.50
2023-05-22T07:03:35.755Z,21.60
2023-05-22T07:06:03.664Z,21.70
2023-05-22T07:08:35.086Z,21.70
2023-05-22T07:11:06.747Z,21.80
2023-05-22T07:13:34.623Z,21.80
2023-05-22T07:16:02.539Z,21.90
2023-05-22T07:18:31.451Z,21.90
2023-05-22T07:21:00.060Z,21.90
2023-05-22T07:23:27.907Z,21.90
2023-05-22T07:25:57.334Z,21.90
2023-05-22T07:28:25.082Z,22.00
2023-05-22T07:30:52.909Z,22.00
2023-05-22T07:33:20.625Z,22.00
2023-05-22T07:35:48.495Z,22.00
2023-05-22T07:38:16.513Z,22.10
2023-05-22T07:40:48.981Z,22.10
2023-05-22T07:43:18.058Z,22.20
2023-05-22T07:45:46.370Z,22.20
2023-05-22T07:48:14.454Z,22.20
2023-05-22T07:50:44.763Z,22.30
2023-05-22T07:53:12.805Z,22.40
2023-05-22T07:55:41.015Z,22.50
2023-05-22T07:58:10.893Z,22.50
2023-05-22T08:00:40.069Z,22.70
2023-05-22T08:03:08.056Z,22.70
2023-05-22T08:05:36.273Z,22.80
2023-05-22T08:08:04.773Z,22.80
2023-05-22T08:10:46.306Z,22.80
2023-05-22T08:13:16.818Z,22.80
2023-05-22T08:15:46.112Z,22.90
2023-05-22T08:18:13.977Z,22.90
2023-05-22T08:20:41.944Z,23.00
2023-05-22T08:23:09.894Z,23.00
2023-05-22T08:25:37.755Z,23.10
2023-05-22T08:28:06.360Z,23.10
2023-05-22T08:30:37.297Z,23.10
2023-05-22T08:33:06.923Z,23.20
2023-05-22T08:35:34.906Z,23.30
2023-05-22T08:38:02.908Z,23.40
2023-05-22T08:40:37.109Z,23.40
2023-05-22T08:43:06.321Z,23.50
2023-05-22T08:45:34.920Z,23.60
2023-05-22T08:48:07.071Z,23.70
2023-05-22T08:50:38.921Z,23.80
2023-05-22T08:53:09.144Z,23.80
2023-05-22T08:55:37.690Z,23.90
2023-05-22T08:58:06.301Z,23.90
2023-05-22T09:00:34.544Z,24.00
2023-05-22T09:03:02.603Z,24.00
2023-05-22T09:05:34.108Z,24.20
2023-05-22T09:08:16.074Z,24.40
2023-05-22T09:10:47.314Z,24.50
2023-05-22T09:13:26.423Z,24.60
2023-05-22T09:15:54.297Z,24.60
2023-05-22T09:18:22.499Z,24.60
2023-05-22T09:20:52.155Z,24.70
2023-05-22T09:23:21.985Z,24.70
2023-05-22T09:25:50.096Z,24.80
2023-05-22T09:28:17.905Z,24.80
2023-05-22T09:30:49.479Z,24.80
2023-05-22T09:33:17.612Z,24.80
2023-05-22T09:35:47.532Z,24.90
2023-05-22T09:38:16.669Z,24.90
2023-05-22T09:40:44.729Z,25.10
2023-05-22T09:43:13.658Z,25.10
2023-05-22T09:45:41.836Z,25.20
2023-05-22T09:48:10.819Z,25.30
2023-05-22T09:50:40.101Z,25.40
2023-05-22T09:53:10.716Z,25.50
2023-05-22T09:55:40.473Z,25.60
2023-05-22T09:58:09.198Z,25.60
2023-05-22T10:00:37.967Z,25.60
2023-05-22T10:03:12.118Z,25.70
2023-05-22T10:05:45.064Z,25.80
2023-05-22T10:08:18.849Z,25.90
2023-05-22T10:10:52.834Z,26.10
2023-05-22T10:13:21.430Z,26.20
2023-05-22T10:15:49.802Z,26.30
2023-05-22T10:18:18.323Z,26.40
2023-05-22T10:20:47.754Z,26.50
2023-05-22T10:23:16.632Z,26.70
2023-05-22T10:25:45.134Z,26.80
2023-05-22T10:28:21.410Z,26.90
2023-05-22T10:30:55.054Z,27.00
2023-05-22T10:33:25.968Z,27.10
2023-05-22T10:35:57.397Z,27.10
2023-05-22T10:38:51.623Z,27.10
2023-05-22T10:41:19.727Z,27.10
2023-05-22T10:43:52.110Z,27.20
2023-05-22T10:46:20.273Z,27.20
2023-05-22T10:48:49.963Z,27.10
2023-05-22T10:51:21.870Z,27.10
2023-05-22T10:53:54.220Z,27.10
2023-05-22T10:56:24.471Z,27.10
2023-05-22T10:59:04.904Z,27.10
2023-05-22T11:01:35.129Z,27.20
2023-05-22T11:04:12.273Z,27.10
2023-05-22T11:06:42.219Z,27.10
2023-05-22T11:09:22.692Z,27.20
2023-05-22T11:12:16.205Z,27.10
2023-05-22T11:14:50.225Z,27.20
2023-05-22T11:17:19.705Z,27.40
2023-05-22T11:19:58.003Z,27.60
2023-05-22T11:22:31.856Z,27.80
2023-05-22T11:25:00.541Z,27.90
2023-05-22T11:27:28.543Z,28.20
2023-05-22T11:29:59.161Z,28.30
2023-05-22T11:32:28.486Z,28.40
2023-05-22T11:34:58.145Z,28.40
2023-05-22T11:37:25.970Z,28.30
2023-05-22T11:39:57.677Z,28.20
2023-05-22T11:42:26.042Z,28.10
2023-05-22T11:44:53.779Z,28.10
2023-05-22T11:47:23.021Z,28.00
2023-05-22T11:49:52.751Z,28.00
2023-05-22T11:52:20.901Z,28.10
2023-05-22T11:54:49.219Z,28.20
2023-05-22T11:57:17.236Z,28.30
2023-05-22T11:59:46.292Z,28.30
2023-05-22T12:02:14.681Z,28.30
2023-05-22T12:04:43.804Z,28.30
2023-05-22T12:07:11.982Z,28.30
2023-05-22T12:09:40.744Z,28.20
2023-05-22T12:12:11.532Z,28.20
2023-05-22T12:14:39.792Z,28.30
2023-05-22T12:17:07.770Z,28.30
2023-05-22T12:19:35.637Z,28.30
2023-05-22T12:22:05.946Z,28.30
2023-05-22T12:24:39.401Z,28.30
2023-05-22T12:27:09.659Z,28.30
2023-05-22T12:29:38.114Z,28.20
2023-05-22T12:32:08.628Z,28.30
2023-05-22T12:34:37.492Z,28.40
2023-05-22T12:37:18.243Z,28.50
2023-05-22T12:39:54.967Z,28.60
2023-05-22T12:42:22.953Z,28.80
2023-05-22T12:44:53.617Z,28.80
2023-05-22T12:47:21.850Z,28.80
2023-05-22T12:49:49.611Z,28.70
2023-05-22T12:52:19.272Z,28.70
2023-05-22T12:54:47.637Z,28.70
2023-05-22T12:57:16.815Z,28.60
2023-05-22T12:59:44.750Z,28.50
2023-05-22T13:02:12.624Z,28.50
2023-05-22T13:04:40.448Z,28.60
2023-05-22T13:07:08.283Z,28.60
2023-05-22T13:09:37.441Z,28.60
2023-05-22T13:12:05.805Z,28.60
2023-05-22T13:14:33.620Z,28.60
2023-05-22T13:17:01.379Z,28.60
2023-05-22T13:19:29.269Z,28.40
2023-05-22T13:21:57.084Z,28.40
2023-05-22T13:24:25.136Z,28.30
2023-05-22T13:27:12.609Z,28.20
2023-05-22T13:29:40.521Z,28.20
2023-05-22T13:32:08.375Z,28.10
2023-05-22T13:34:36.245Z,28.00
2023-05-22T13:37:04.234Z,28.00
2023-05-22T13:39:32.293Z,27.90
2023-05-22T13:42:00.721Z,27.90
2023-05-22T13:44:30.019Z,27.90
2023-05-22T13:46:58.083Z,27.90
2023-05-22T13:49:26.558Z,27.80
2023-05-22T13:51:54.314Z,27.80
2023-05-22T13:54:22.147Z,27.80
2023-05-22T13:56:50.036Z,27.80
2023-05-22T13:59:17.938Z,27.90
2023-05-22T14:01:47.152Z,27.80
2023-05-22T14:04:15.079Z,27.80
2023-05-22T14:06:44.098Z,27.80
2023-05-22T14:09:12.126Z,27.80
2023-05-22T14:11:40.224Z,27.80
2023-05-22T14:14:08.229Z,27.70
2023-05-22T14:16:36.168Z,27.70
2023-05-22T14:19:05.461Z,27.60
2023-05-22T14:21:33.506Z,27.50
2023-05-22T14:24:02.480Z,27.50
2023-05-22T14:26:30.400Z,27.40
2023-05-22T14:28:58.441Z,27.30
2023-05-22T14:31:29.761Z,27.20
2023-05-22T14:33:57.676Z,27.10
2023-05-22T14:36:26.826Z,27.00
2023-05-22T14:38:56.994Z,27.00
2023-05-22T14:41:24.787Z,26.80
2023-05-22T14:43:52.596Z,26.80
2023-05-22T14:46:20.446Z,26.70
2023-05-22T14:48:48.231Z,26.60
2023-05-22T14:51:16.164Z,26.60
2023-05-22T14:53:45.921Z,26.50
2023-05-22T14:56:13.672Z,26.40
2023-05-22T14:58:41.514Z,26.30
2023-05-22T15:01:09.498Z,26.30
2023-05-22T15:03:37.269Z,26.20
2023-05-22T15:06:05.998Z,26.10
2023-05-22T15:08:33.748Z,25.90
2023-05-22T15:11:03.109Z,25.70
2023-05-22T15:13:30.905Z,25.40
2023-05-22T15:15:59.196Z,25.10
2023-05-22T15:18:27.719Z,24.80
2023-05-22T15:20:55.673Z,24.60
2023-05-22T15:23:25.316Z,24.30
2023-05-22T15:25:54.092Z,24.00
2023-05-22T15:28:23.268Z,23.60
2023-05-22T15:30:51.298Z,23.20
2023-05-22T15:33:19.334Z,22.90
2023-05-22T15:35:47.948Z,22.50
2023-05-22T15:38:16.774Z,22.20
2023-05-22T15:40:45.166Z,21.90
2023-05-22T15:43:13.014Z,21.70
2023-05-22T15:45:43.394Z,21.50
2023-05-22T15:48:12.716Z,21.40
2023-05-22T15:50:40.704Z,21.30
2023-05-22T15:53:08.479Z,21.30
2023-05-22T15:55:36.745Z,21.30
2023-05-22T15:58:06.081Z,21.20
2023-05-22T16:00:38.516Z,21.20
2023-05-22T16:03:10.000Z,21.20
2023-05-22T16:05:39.839Z,21.10
2023-05-22T16:08:10.005Z,21.10
2023-05-22T16:10:41.344Z,21.10
2023-05-22T16:13:10.500Z,21.10
2023-05-22T16:15:39.815Z,21.10
2023-05-22T16:18:11.415Z,21.00
2023-05-22T16:20:39.291Z,20.90
2023-05-22T16:23:07.119Z,20.90
2023-05-22T16:25:35.419Z,20.90
2023-05-22T16:28:04.174Z,20.90
2023-05-22T16:30:32.147Z,20.90
2023-05-22T16:33:00.466Z,20.90
2023-05-22T16:35:30.408Z,21.00
2023-05-22T16:37:58.402Z,21.00
2023-05-22T16:40:29.354Z,21.00
2023-05-22T16:42:57.177Z,21.10
2023-05-22T16:45:25.471Z,21.10
2023-05-22T16:47:55.954Z,21.20
2023-05-22T16:50:24.022Z,21.20
2023-05-22T16:52:53.217Z,21.20
2023-05-22T16:55:21.261Z,21.20
2023-05-22T16:57:49.206Z,21.10
2023-05-22T17:00:17.771Z,21.10
2023-05-22T17:02:46.253Z,21.10
2023-05-22T17:05:14.099Z,21.00
2023-05-22T17:07:41.988Z,21.00
2023-05-22T17:10:12.531Z,20.90
2023-05-22T17:12:40.297Z,20.90
2023-05-22T17:15:09.382Z,20.90
2023-05-22T17:17:37.243Z,20.80
2023-05-22T17:20:07.209Z,20.70
2023-05-22T17:22:36.219Z,20.70
2023-05-22T17:25:06.061Z,20.60
2023-05-22T17:27:36.649Z,20.50
2023-05-22T17:30:05.962Z,20.50
2023-05-22T17:32:34.327Z,20.40
2023-05-22T17:35:04.872Z,20.40
2023-05-22T17:37:32.702Z,20.30
2023-05-22T17:40:00.531Z,20.30
2023-05-22T17:42:28.358Z,20.20
2023-05-22T17:44:57.420Z,20.20
2023-05-22T17:47:25.155Z,20.10
2023-05-22T17:49:52.896Z,20.00
2023-05-22T17:52:20.692Z,19.90
2023-05-22T17:54:49.873Z,19.80
2023-05-22T17:57:17.628Z,19.80
2023-05-22T17:59:45.590Z,19.70
2023-05-22T18:02:14.750Z,19.70
2023-05-22T18:04:43.925Z,19.60
2023-05-22T18:07:11.727Z,19.60
2023-05-22T18:09:39.735Z,19.60
2023-05-22T18:12:12.940Z,19.60
2023-05-22T18:14:45.906Z,19.60
2023-05-22T18:17:15.026Z,19.70
2023-05-22T18:19:42.917Z,19.70
2023-05-22T18:22:10.625Z,19.70
2023-05-22T18:24:38.401Z,19.70
2023-05-22T18:27:06.504Z,19.80
2023-05-22T18:29:34.277Z,19.70
2023-05-22T18:32:02.217Z,19.70
2023-05-22T18:34:32.202Z,19.70
2023-05-22T18:36:59.945Z,19.70
2023-05-22T18:39:27.721Z,19.70
2023-05-22T18:41:55.447Z,19.60
2023-05-22T18:44:23.504Z,19.60
2023-05-22T18:46:51.300Z,19.60
2023-05-22T18:49:19.090Z,19.50
2023-05-22T18:51:48.186Z,19.50
2023-05-22T18:54:16.062Z,19.50
2023-05-22T18:56:43.843Z,19.50
2023-05-22T18:59:11.571Z,19.40
2023-05-22T19:01:39.434Z,19.40
2023-05-22T19:04:07.766Z,19.40
2023-05-22T19:06:35.829Z,19.40
2023-05-22T19:09:05.240Z,19.40
2023-05-22T19:11:33.482Z,19.40
2023-05-22T19:14:01.345Z,19.30
2023-05-22T19:16:29.337Z,19.30
2023-05-22T19:18:57.145Z,19.30
2023-05-22T19:21:26.299Z,19.30
2023-05-22T19:23:54.050Z,19.30
2023-05-22T19:26:23.076Z,19.30
2023-05-22T19:28:50.857Z,19.30
2023-05-22T19:31:18.674Z,19.30
2023-05-22T19:33:46.929Z,19.30
2023-05-22T19:36:14.754Z,19.40
2023-05-22T19:38:42.780Z,19.30
2023-05-22T19:41:10.590Z,19.30
2023-05-22T19:43:39.765Z,19.40
2023-05-22T19:46:08.955Z,19.30
2023-05-22T19:48:36.909Z,19.30
2023-05-22T19:51:05.161Z,19.30
2023-05-22T19:53:34.075Z,19.30
2023-05-22T19:56:02.898Z,19.20
2023-05-22T19:58:33.174Z,19.10
2023-05-22T20:01:02.269Z,19.10
2023-05-22T20:03:30.577Z,19.10
2023-05-22T20:05:58.931Z,19.10
2023-05-22T20:08:26.833Z,19.10
2023-05-22T20:10:54.611Z,19.20
2023-05-22T20:13:22.391Z,19.20
2023-05-22T20:15:51.266Z,19.20
2023-05-22T20:18:20.797Z,19.20
2023-05-22T20:20:48.531Z,19.20
2023-05-22T20:23:16.407Z,19.20
2023-05-22T20:25:44.248Z,19.20
2023-05-22T20:28:12.029Z,19.20
2023-05-22T20:30:39.984Z,19.30
2023-05-22T20:33:11.847Z,19.20
2023-05-22T20:35:42.234Z,19.20
2023-05-22T20:38:14.292Z,19.20
2023-05-22T20:40:46.392Z,19.20
2023-05-22T20:43:14.882Z,19.10
2023-05-22T20:45:45.684Z,19.00
2023-05-22T20:48:14.105Z,18.90
2023-05-22T20:50:43.440Z,18.90
2023-05-22T20:53:12.338Z,18.80
2023-05-22T20:55:40.602Z,18.80
2023-05-22T20:58:09.204Z,18.80
2023-05-22T21:00:36.954Z,18.70
2023-05-22T21:03:04.868Z,18.70
2023-05-22T21:05:32.675Z,18.70
2023-05-22T21:08:01.767Z,18.70
2023-05-22T21:10:29.542Z,18.60
2023-05-22T21:12:57.329Z,18.60
2023-05-22T21:15:25.182Z,18.60
2023-05-22T21:17:52.947Z,18.50
2023-05-22T21:20:20.691Z,18.50
2023-05-22T21:22:48.654Z,18.60
2023-05-22T21:25:17.737Z,18.50
2023-05-22T21:27:46.606Z,18.50
2023-05-22T21:30:16.068Z,18.60
2023-05-22T21:32:44.423Z,18.60
2023-05-22T21:35:12.260Z,18.50
2023-05-22T21:37:40.614Z,18.50
2023-05-22T21:40:09.755Z,18.50
2023-05-22T21:42:46.533Z,18.50
2023-05-22T21:45:15.282Z,18.50
2023-05-22T21:47:43.149Z,18.50
2023-05-22T21:50:11.687Z,18.50
2023-05-22T21:52:39.419Z,18.50
2023-05-22T21:55:09.103Z,18.50
2023-05-22T21:57:39.672Z,18.50
2023-05-22T22:00:08.739Z,18.50
2023-05-22T22:02:36.594Z,18.60
2023-05-22T22:05:04.669Z,18.60
2023-05-22T22:07:32.385Z,18.60
2023-05-22T22:10:00.531Z,18.60
2023-05-22T22:12:28.600Z,18.60
2023-05-22T22:14:58.262Z,18.50
2023-05-22T22:17:26.382Z,18.50
2023-05-22T22:19:56.837Z,18.50
2023-05-22T22:22:26.183Z,18.40
2023-05-22T22:24:55.442Z,18.40
2023-05-22T22:27:23.400Z,18.40
2023-05-22T22:29:51.246Z,18.40
2023-05-22T22:32:20.775Z,18.40
2023-05-22T22:34:53.636Z,18.40
2023-05-22T22:37:22.127Z,18.40
2023-05-22T22:39:49.876Z,18.30
2023-05-22T22:42:17.790Z,18.30
2023-05-22T22:44:45.727Z,18.30
2023-05-22T22:47:13.508Z,18.30
2023-05-22T22:49:42.584Z,18.30
2023-05-22T22:52:10.688Z,18.30
2023-05-22T22:54:38.711Z,18.30
2023-05-22T22:57:06.946Z,18.20
2023-05-22T22:59:35.570Z,18.20
2023-05-22T23:02:03.301Z,18.20
2023-05-22T23:04:31.568Z,18.20
2023-05-22T23:07:00.789Z,18.20
2023-05-22T23:09:28.700Z,18.20
2023-05-22T23:11:56.526Z,18.20
2023-05-22T23:14:24.703Z,18.20
2023-05-22T23:16:52.551Z,18.20
2023-05-22T23:19:20.292Z,18.20
2023-05-22T23:21:48.196Z,18.20
2023-05-22T23:24:17.302Z,18.20
2023-05-22T23:26:45.101Z,18.20
2023-05-22T23:29:13.216Z,18.20
2023-05-22T23:31:41.020Z,18.20
2023-05-22T23:34:09.046Z,18.20
2023-05-22T23:36:37.267Z,18.20
2023-05-22T23:39:05.192Z,18.20
2023-05-22T23:41:35.411Z,18.30
2023-05-22T23:44:03.451Z,18.30
2023-05-22T23:46:31.238Z,18.30
2023-05-22T23:48:59.341Z,18.30
2023-05-22T23:51:27.139Z,18.30
2023-05-22T23:53:54.876Z,18.40
2023-05-22T23:56:22.709Z,18.40
2023-05-22T23:58:51.811Z,18.40
